Time;durP1;ratioP1;P1;durP2;ratioP2;P2;SDS_P1;SDS_P2;PMS_P1;PMS_P2;Temp;Humidity;BMP_temperature;BMP_pressure;BME280_temperature;BME280_humidity;BME280_pressure;Samples;Min_cycle;Max_cycle;Signal;HPM_P1;HPM_P2
2021/08/10 00:01:03;;;;;;;2.97;1.00;;;16.00;99.90;;;;;;20715509;28;20037;-81
2021/08/10 00:11:06;;;;;;;6.85;1.40;;;16.10;99.90;;;;;;20699226;28;20072;-83
2021/08/10 00:21:07;;;;;;;1.77;0.60;;;16.20;99.90;;;;;;20684582;28;20052;-84
2021/08/10 00:31:08;;;;;;;1.88;0.63;;;16.30;99.90;;;;;;20691490;28;20042;-81
2021/08/10 00:41:09;;;;;;;2.78;1.10;;;16.10;99.90;;;;;;20706667;28;20068;-81
2021/08/10 00:51:12;;;;;;;3.58;1.05;;;16.00;99.90;;;;;;20671193;28;20042;-81
2021/08/10 01:01:13;;;;;;;3.63;1.55;;;16.00;99.90;;;;;;20721158;28;20049;-80
2021/08/10 01:11:32;;;;;;;2.53;0.88;;;15.90;99.90;;;;;;20715141;28;20053;-81
2021/08/10 01:21:41;;;;;;;3.08;1.13;;;15.80;99.90;;;;;;20734027;28;20112;-83
2021/08/10 01:31:44;;;;;;;2.75;1.20;;;15.90;99.90;;;;;;20695963;28;20242;-83
2021/08/10 01:41:46;;;;;;;3.08;1.08;;;15.90;99.90;;;;;;20717619;28;20033;-84
2021/08/10 01:51:48;;;;;;;2.65;0.98;;;15.90;99.90;;;;;;20733514;28;20042;-84
2021/08/10 02:01:50;;;;;;;3.30;1.10;;;15.90;99.90;;;;;;20692809;28;20036;-84
2021/08/10 02:11:53;;;;;;;3.63;1.10;;;15.80;99.90;;;;;;20694549;28;20052;-84
2021/08/10 02:22:03;;;;;;;2.45;1.38;;;15.90;99.90;;;;;;20696909;28;20054;-81
2021/08/10 02:32:07;;;;;;;2.78;1.05;;;15.90;99.90;;;;;;20717185;28;20046;-81
2021/08/10 02:42:10;;;;;;;6.80;1.98;;;15.80;99.90;;;;;;20709978;28;20034;-84
2021/08/10 02:52:11;;;;;;;4.05;1.83;;;15.80;99.90;;;;;;20696905;28;20044;-84
2021/08/10 03:02:16;;;;;;;4.10;1.60;;;15.80;99.90;;;;;;20683502;28;20038;-84
2021/08/10 03:12:20;;;;;;;3.30;1.30;;;15.70;99.90;;;;;;20700590;28;20033;-84
2021/08/10 03:22:24;;;;;;;3.80;1.20;;;15.70;99.90;;;;;;20709842;28;20042;-84
2021/08/10 03:32:26;;;;;;;12.75;2.25;;;15.70;99.90;;;;;;20722456;28;20599;-83
2021/08/10 03:42:27;;;;;;;2.42;1.17;;;15.70;99.90;;;;;;20645213;28;20045;-83
2021/08/10 03:52:28;;;;;;;3.92;1.33;;;15.50;99.90;;;;;;20690237;28;20038;-82
2021/08/10 04:02:30;;;;;;;4.50;1.30;;;15.60;99.90;;;;;;20576315;28;20048;-83
2021/08/10 04:12:31;;;;;;;4.10;1.42;;;15.60;99.90;;;;;;20630633;28;20098;-83
2021/08/10 04:22:33;;;;;;;8.82;1.73;;;15.50;99.90;;;;;;20588395;28;20034;-84
2021/08/10 04:32:34;;;;;;;3.00;1.25;;;15.60;99.90;;;;;;20630653;28;20038;-83
2021/08/10 04:42:35;;;;;;;3.70;1.40;;;15.60;99.90;;;;;;20631691;28;20038;-83
2021/08/10 04:52:36;;;;;;;4.25;1.38;;;15.50;99.90;;;;;;20635413;28;20075;-83
2021/08/10 05:02:38;;;;;;;2.33;1.10;;;15.40;99.90;;;;;;20622868;28;20036;-83
2021/08/10 05:12:39;;;;;;;3.05;1.35;;;15.20;99.90;;;;;;20611848;28;20046;-81
2021/08/10 05:22:41;;;;;;;3.47;1.50;;;15.20;99.90;;;;;;20655690;28;20042;-83
2021/08/10 05:32:43;;;;;;;4.70;1.65;;;15.40;99.90;;;;;;20626046;28;20034;-83
2021/08/10 05:42:44;;;;;;;3.55;1.30;;;15.60;99.90;;;;;;20641961;28;20038;-84
2021/08/10 05:52:45;;;;;;;3.40;1.23;;;15.80;99.90;;;;;;20703410;28;20038;-84
2021/08/10 06:02:47;;;;;;;6.05;1.45;;;16.30;99.90;;;;;;20663330;28;20084;-86
2021/08/10 06:12:48;;;;;;;9.80;2.00;;;16.30;99.90;;;;;;20678611;28;20042;-85
2021/08/10 06:22:49;;;;;;;4.90;1.50;;;16.30;99.90;;;;;;20663216;28;20034;-83
2021/08/10 06:32:51;;;;;;;5.20;1.40;;;16.40;99.90;;;;;;20664419;28;20029;-83
2021/08/10 06:42:52;;;;;;;4.30;1.98;;;16.60;99.90;;;;;;20639896;28;20049;-83
2021/08/10 06:52:54;;;;;;;6.15;1.90;;;16.90;99.90;;;;;;20685271;28;20052;-82
2021/08/10 07:02:55;;;;;;;4.20;1.55;;;17.10;99.90;;;;;;20672428;28;20145;-83
2021/08/10 07:12:56;;;;;;;7.47;2.55;;;17.10;99.90;;;;;;20707701;28;20040;-79
2021/08/10 07:22:57;;;;;;;4.70;1.90;;;17.30;99.90;;;;;;20669053;28;20042;-78
2021/08/10 07:32:58;;;;;;;4.55;2.22;;;17.60;99.90;;;;;;20681766;28;20030;-78
2021/08/10 07:42:59;;;;;;;6.55;3.08;;;17.70;99.90;;;;;;20675827;28;20084;-78
2021/08/10 07:53:01;;;;;;;7.60;2.05;;;17.60;99.90;;;;;;20684795;28;20048;-78
2021/08/10 08:03:02;;;;;;;5.72;2.22;;;17.70;99.90;;;;;;20681105;28;20054;-81
2021/08/10 08:13:03;;;;;;;3.95;1.95;;;17.70;99.90;;;;;;20690588;28;20072;-79
2021/08/10 08:23:04;;;;;;;6.63;2.25;;;17.70;99.90;;;;;;20684307;28;20042;-78
2021/08/10 08:33:09;;;;;;;5.65;1.95;;;17.80;99.90;;;;;;20679408;28;20061;-77
2021/08/10 08:43:11;;;;;;;5.13;2.20;;;17.80;99.90;;;;;;20665372;28;20088;-81
2021/08/10 08:53:14;;;;;;;10.75;2.20;;;17.50;99.90;;;;;;20670271;28;20029;-78
2021/08/10 09:03:16;;;;;;;10.70;4.53;;;17.30;99.90;;;;;;20662458;28;20050;-80
2021/08/10 09:13:17;;;;;;;7.30;2.30;;;17.00;99.90;;;;;;20685931;28;20136;-79
2021/08/10 09:23:45;;;;;;;6.88;3.05;;;16.80;99.90;;;;;;20693453;28;20092;-80
2021/08/10 09:33:48;;;;;;;6.00;2.20;;;16.60;99.90;;;;;;20680504;28;20635;-81
2021/08/10 09:43:50;;;;;;;5.47;2.30;;;16.50;99.90;;;;;;20692791;28;20046;-80
2021/08/10 09:54:03;;;;;;;6.40;2.13;;;16.60;99.90;;;;;;20684524;28;20621;-78
2021/08/10 10:04:31;;;;;;;11.85;4.35;;;17.50;99.90;;;;;;20695971;28;20750;-78
2021/08/10 10:14:32;;;;;;;8.18;2.03;;;18.30;99.90;;;;;;20675380;28;20656;-79
2021/08/10 10:24:42;;;;;;;6.63;2.38;;;18.70;99.90;;;;;;20700214;28;20046;-79
2021/08/10 10:34:45;;;;;;;5.43;1.85;;;18.90;99.90;;;;;;20658695;28;20095;-80
2021/08/10 10:44:52;;;;;;;4.55;1.23;;;19.60;99.90;;;;;;20688526;28;20837;-79
2021/08/10 10:54:54;;;;;;;2.80;1.63;;;19.90;99.90;;;;;;20705906;28;20105;-78
2021/08/10 11:05:07;;;;;;;6.10;1.67;;;19.60;99.90;;;;;;20734129;28;20064;-78
2021/08/10 11:15:42;;;;;;;2.10;0.95;;;19.10;99.90;;;;;;20713235;28;20751;-78
2021/08/10 11:25:43;;;;;;;6.80;2.22;;;18.80;99.90;;;;;;20665538;28;20137;-79
2021/08/10 11:35:45;;;;;;;2.78;1.23;;;19.60;99.90;;;;;;20674748;28;21106;-79
2021/08/10 11:45:47;;;;;;;1.92;0.70;;;19.60;99.90;;;;;;20708627;28;20927;-78
2021/08/10 11:55:48;;;;;;;1.65;0.68;;;20.60;99.90;;;;;;20722632;28;20792;-78
2021/08/10 12:05:50;;;;;;;2.88;1.00;;;20.40;99.90;;;;;;20696713;28;21109;-78
2021/08/10 12:15:53;;;;;;;3.58;1.08;;;21.00;99.90;;;;;;20731962;28;20482;-78
2021/08/10 12:25:54;;;;;;;2.60;1.10;;;22.10;99.90;;;;;;20692451;28;20053;-78
2021/08/10 12:36:05;;;;;;;2.67;0.98;;;22.40;99.90;;;;;;20724201;28;20042;-78
2021/08/10 12:46:27;;;;;;;1.60;0.80;;;22.60;99.90;;;;;;20703958;28;20044;-79
2021/08/10 12:56:32;;;;;;;2.42;0.88;;;22.90;99.90;;;;;;20713075;28;22079;-77
2021/08/10 13:06:35;;;;;;;1.80;0.85;;;23.20;99.90;;;;;;20694509;28;20046;-79
2021/08/10 13:16:41;;;;;;;1.80;0.70;;;23.40;99.90;;;;;;20685918;28;20485;-79
2021/08/10 13:26:45;;;;;;;3.53;1.55;;;23.60;99.90;;;;;;20700648;28;20457;-78
2021/08/10 13:36:48;;;;;;;3.50;1.63;;;24.00;99.90;;;;;;20719980;28;20215;-78
2021/08/10 13:46:49;;;;;;;1.40;0.70;;;23.90;99.90;;;;;;20695176;28;20033;-78
2021/08/10 13:56:51;;;;;;;4.63;1.38;;;23.60;99.90;;;;;;20700727;28;20033;-78
2021/08/10 14:06:52;;;;;;;2.08;0.80;;;23.50;99.90;;;;;;20685196;28;20666;-78
2021/08/10 14:16:53;;;;;;;3.25;1.05;;;23.50;99.90;;;;;;20691902;28;20050;-79
2021/08/10 14:26:55;;;;;;;2.65;1.15;;;23.10;99.90;;;;;;20706440;28;20064;-79
2021/08/10 14:36:56;;;;;;;2.47;1.08;;;22.20;99.90;;;;;;20703635;28;20042;-79
2021/08/10 14:46:57;;;;;;;4.63;1.55;;;22.20;99.90;;;;;;20708667;28;20048;-79
2021/08/10 14:56:58;;;;;;;4.30;1.00;;;22.50;99.90;;;;;;20693105;28;20096;-79
2021/08/10 15:07:00;;;;;;;2.15;0.70;;;22.50;99.90;;;;;;20691535;28;20038;-79
2021/08/10 15:17:01;;;;;;;1.90;0.80;;;22.50;99.90;;;;;;20688760;28;20037;-79
2021/08/10 15:27:04;;;;;;;1.52;0.88;;;22.40;99.90;;;;;;20659626;28;20755;-79
2021/08/10 15:37:06;;;;;;;2.15;0.90;;;22.30;99.90;;;;;;20670969;28;20048;-81
2021/08/10 15:47:12;;;;;;;1.98;0.60;;;22.20;99.90;;;;;;20707796;28;20030;-80
2021/08/10 15:57:13;;;;;;;3.28;0.80;;;22.20;99.90;;;;;;20667954;28;20132;-81
2021/08/10 16:07:14;;;;;;;2.13;0.95;;;22.10;99.90;;;;;;20685676;28;20060;-79
2021/08/10 16:17:22;;;;;;;4.50;0.95;;;22.10;99.90;;;;;;20702517;28;20560;-82
2021/08/10 16:27:24;;;;;;;1.70;0.85;;;21.70;99.90;;;;;;20707971;28;20046;-80
2021/08/10 16:37:25;;;;;;;2.47;0.65;;;21.50;99.90;;;;;;20724610;28;22560;-80
2021/08/10 16:47:27;;;;;;;2.42;1.15;;;21.50;99.90;;;;;;20746912;28;20143;-80
2021/08/10 16:57:28;;;;;;;4.90;0.75;;;21.20;99.90;;;;;;20729839;28;20045;-81
2021/08/10 17:07:29;;;;;;;3.55;0.90;;;20.90;99.90;;;;;;20703982;28;20124;-81
2021/08/10 17:17:30;;;;;;;2.42;0.85;;;20.90;99.90;;;;;;20735846;28;20045;-81
2021/08/10 17:27:31;;;;;;;1.88;0.68;;;20.80;99.90;;;;;;20708216;28;20151;-81
2021/08/10 17:37:32;;;;;;;2.25;0.95;;;20.50;99.90;;;;;;20713750;28;20052;-81
2021/08/10 17:47:33;;;;;;;2.92;0.57;;;20.40;99.90;;;;;;20708082;28;20048;-81
2021/08/10 17:57:35;;;;;;;2.95;0.90;;;20.20;99.90;;;;;;20678133;28;20133;-81
2021/08/10 18:07:36;;;;;;;2.00;0.60;;;19.90;99.90;;;;;;20709285;28;20032;-80
2021/08/10 18:17:41;;;;;;;2.38;0.75;;;19.70;99.90;;;;;;20685574;28;20053;-80
2021/08/10 18:27:44;;;;;;;2.08;0.70;;;19.70;99.90;;;;;;20699867;28;20648;-80
2021/08/10 18:37:49;;;;;;;2.40;0.90;;;19.50;99.90;;;;;;20735533;28;20050;-80
2021/08/10 18:47:52;;;;;;;2.97;0.98;;;19.10;99.90;;;;;;20701486;28;20038;-80
2021/08/10 18:57:54;;;;;;;8.52;1.35;;;18.80;99.90;;;;;;20686686;28;20064;-80
2021/08/10 19:07:56;;;;;;;3.30;1.15;;;18.60;99.90;;;;;;20695885;28;20050;-80
2021/08/10 19:18:03;;;;;;;5.60;2.22;;;18.40;99.90;;;;;;20861766;23;20089;-84
2021/08/10 19:28:12;;;;;;;10.50;5.40;;;18.20;99.90;;;;;;20733376;28;20535;-83
2021/08/10 19:38:32;;;;;;;4.47;1.90;;;17.90;99.90;;;;;;20716694;28;20030;-83
2021/08/10 19:48:38;;;;;;;3.00;1.10;;;17.60;99.90;;;;;;20726837;28;20037;-82
2021/08/10 19:58:49;;;;;;;2.47;0.88;;;17.40;99.90;;;;;;20734068;28;20053;-83
2021/08/10 20:08:56;;;;;;;5.40;1.52;;;17.20;99.90;;;;;;20767615;28;20114;-82
2021/08/10 20:18:57;;;;;;;5.18;1.60;;;17.00;99.90;;;;;;20758139;28;20097;-83
2021/08/10 20:29:17;;;;;;;4.35;1.13;;;16.80;99.90;;;;;;20776206;28;20053;-81
2021/08/10 20:39:51;;;;;;;5.30;2.40;;;16.60;99.90;;;;;;20775889;28;20050;-82
2021/08/10 20:49:52;;;;;;;5.55;2.60;;;16.50;99.90;;;;;;20782987;23;20050;-45
2021/08/10 20:59:53;;;;;;;4.38;2.17;;;16.40;99.90;;;;;;20705191;28;20639;-45
2021/08/10 21:09:54;;;;;;;3.92;1.85;;;16.20;99.90;;;;;;20709603;28;20034;-45
2021/08/10 21:19:55;;;;;;;4.22;2.25;;;16.10;99.90;;;;;;20680420;28;20034;-45
2021/08/10 21:29:56;;;;;;;3.80;1.73;;;15.90;99.90;;;;;;20666967;28;20042;-45
2021/08/10 21:39:57;;;;;;;10.00;2.25;;;16.00;99.90;;;;;;20664337;28;20037;-45
2021/08/10 21:49:58;;;;;;;3.83;1.38;;;15.90;99.90;;;;;;20647209;28;20053;-45
2021/08/10 21:59:59;;;;;;;5.82;1.73;;;15.70;99.90;;;;;;20669100;28;20335;-45
2021/08/10 22:10:01;;;;;;;4.93;1.95;;;15.50;99.90;;;;;;20662775;28;20045;-45
2021/08/10 22:20:05;;;;;;;4.28;1.40;;;15.50;99.90;;;;;;20659982;28;20038;-45
2021/08/10 22:30:08;;;;;;;5.80;1.95;;;15.20;99.90;;;;;;20662483;28;20045;-45
2021/08/10 22:40:10;;;;;;;3.35;1.38;;;15.30;99.90;;;;;;20657039;28;20038;-45
2021/08/10 22:50:11;;;;;;;3.60;1.20;;;15.10;99.90;;;;;;20660546;28;20049;-45
2021/08/10 23:00:16;;;;;;;4.55;1.52;;;15.00;99.90;;;;;;20659622;28;20088;-45
2021/08/10 23:10:17;;;;;;;3.78;1.40;;;14.80;99.90;;;;;;20655396;28;20041;-45
2021/08/10 23:20:19;;;;;;;3.33;1.45;;;14.80;99.90;;;;;;20660648;28;20042;-45
2021/08/10 23:30:20;;;;;;;3.85;1.70;;;14.80;99.90;;;;;;20656596;28;20686;-45
2021/08/10 23:40:21;;;;;;;5.72;1.30;;;14.60;99.90;;;;;;20654305;28;20505;-45
2021/08/10 23:50:22;;;;;;;4.90;1.70;;;14.50;99.90;;;;;;20658397;28;20056;-45
